Euskara    
Meteorología y climatología de Navarra
Datos de la estación - Meteo Navarra

Estación de Erremendia (Salazar) GN

Altitud 1047 m.


Datos desde el 18/10/2020 hasta el 19/10/2020 en horario solar
Los datos son PROVISIONALES

Anterior Página 1 de 1 Siguiente Descargar: Formato para Excel 2000 o superior   Formato csv   Formato para OpenOffice Calc
Fecha Temperatura Humedad relativa Radiación global Insolación Precipitación Vel. viento 10 m Vel. viento 10 m Dir. viento 10 m
°C % W/m² s l/m² m/s km/h °
18/10/2020 0:00 -3.0 96 0.0 0 0.0 0.8 3.0 69
18/10/2020 0:10 -3.1 96 0.0 0 0.0 0.4 1.3 80
18/10/2020 0:20 -3.1 96 0.0 0 0.0 0.4 1.4 78
18/10/2020 0:30 -2.7 97 0.0 0 0.0 0.8 2.8 68
18/10/2020 0:40 -3.0 96 0.0 0 0.0 0.8 3.0 78
18/10/2020 0:50 -3.2 96 0.0 0 0.0 0.8 3.0 83
18/10/2020 1:00 -3.3 96 0.0 0 0.0 0.8 2.8 83
18/10/2020 1:10 -3.3 96 0.0 0 0.0 0.3 1.2 83
18/10/2020 1:20 -3.3 96 0.0 0 0.0 0.8 2.9 83
18/10/2020 1:30 -3.2 96 0.0 0 0.0 0.7 2.6 83
18/10/2020 1:40 -3.4 96 0.0 0 0.0 0.8 2.9 83
18/10/2020 1:50 -3.7 96 0.0 0 0.0 0.8 3.0 76
18/10/2020 2:00 -3.5 96 0.0 0 0.0 0.6 2.2 77
18/10/2020 2:10 -3.4 96 0.0 0 0.0 0.7 2.6 74
18/10/2020 2:20 -3.6 96 0.0 0 0.0 0.5 1.9 75
18/10/2020 2:30 -3.9 96 0.0 0 0.0 0.7 2.3 73
18/10/2020 2:40 -4.0 96 0.0 0 0.0 0.8 2.9 75
18/10/2020 2:50 -4.0 96 0.0 0 0.0 0.8 2.8 78
18/10/2020 3:00 -4.1 96 0.0 0 0.0 0.8 2.8 77
18/10/2020 3:10 -4.1 96 0.0 0 0.0 0.9 3.3 76
18/10/2020 3:20 -3.9 96 0.0 0 0.0 0.9 3.1 75
18/10/2020 3:30 -4.0 96 0.0 0 0.0 0.4 1.3 76
18/10/2020 3:40 -4.0 96 0.0 0 0.0 0.8 2.7 79
18/10/2020 3:50 -4.1 96 0.0 0 0.0 0.6 2.2 73
18/10/2020 4:00 -4.2 96 0.0 0 0.0 1.0 3.5 73
18/10/2020 4:10 -4.2 96 0.0 0 0.0 0.7 2.4 80
18/10/2020 4:20 -4.3 96 0.0 0 0.0 0.8 3.0 76
18/10/2020 4:30 -4.3 96 0.0 0 0.0 1.0 3.5 78
18/10/2020 4:40 -4.2 96 0.0 0 0.0 0.8 3.0 77
18/10/2020 4:50 -4.2 96 0.0 0 0.0 1.1 3.9 76
18/10/2020 5:00 -4.1 96 0.0 0 0.0 0.7 2.5 81
18/10/2020 5:10 -4.3 96 0.0 0 0.0 0.8 3.0 72
18/10/2020 5:20 -4.3 96 0.0 0 0.0 1.1 3.8 79
18/10/2020 5:30 -4.3 96 0.0 0 0.0 0.7 2.5 79
18/10/2020 5:40 -4.3 96 0.0 0 0.0 0.9 3.1 77
18/10/2020 5:50 -4.4 96 0.0 0 0.0 0.8 3.0 81
18/10/2020 6:00 -4.4 96 0.0 0 0.0 0.9 3.1 78
18/10/2020 6:10 -4.6 96 0.0 0 0.0 0.6 2.1 74
18/10/2020 6:20 -4.7 96 0.0 0 0.0 0.4 1.5 74
18/10/2020 6:30 -4.5 96 0.0 0 0.0 1.0 3.6 73
18/10/2020 6:40 -4.4 96 5.7 0 0.0 0.6 2.3 82
18/10/2020 6:50 -4.2 96 22.6 0 0.0 0.7 2.6 74
18/10/2020 7:00 -3.7 96 55.9 536 0.0 1.2 4.3 75
18/10/2020 7:10 -3.0 96 103.4 600 0.0 0.7 2.6 83
18/10/2020 7:20 -1.5 97 153.6 600 0.0 0.6 2.0 72
18/10/2020 7:30 0.7 97 166.2 600 0.0 0.2 0.6 73
18/10/2020 7:40 1.5 96 94.4 232 0.0 0.1 0.3 78
18/10/2020 7:50 1.2 95 99.7 0 0.0 0.5 1.7 80
18/10/2020 8:00 1.3 95 150.0 366 0.0 0.1 0.3 83
18/10/2020 8:10 2.2 96 194.0 600 0.0 0.1 0.3 83
18/10/2020 8:20 3.7 96 152.0 126 0.0 0.0 0.1 84
18/10/2020 8:30 4.0 95 136.1 0 0.0 0.0 0.0 84
18/10/2020 8:40 4.8 95 210.0 282 0.0 0.0 0.0 84
18/10/2020 8:50 6.6 96 412.5 600 0.0 0.1 0.2 84
18/10/2020 9:00 8.3 82 328.2 562 0.0 0.0 0.0 0
18/10/2020 9:10 10.6 69 454.9 600 0.0 0.0 0.1 85
18/10/2020 9:20 12.0 55 385.6 594 0.0 0.1 0.2 84
18/10/2020 9:30 12.8 40 482.9 600 0.0 0.5 1.7 272
18/10/2020 9:40 13.4 37 510.6 600 0.0 0.9 3.1 270
18/10/2020 9:50 13.7 34 399.5 600 0.0 1.1 3.8 269
18/10/2020 10:00 13.5 33 265.4 234 0.0 0.9 3.2 264
18/10/2020 10:10 13.4 37 417.8 456 0.0 0.8 2.9 240
18/10/2020 10:20 14.3 35 622.0 600 0.0 0.8 2.8 265
18/10/2020 10:30 15.0 34 574.9 600 0.0 0.9 3.1 279
18/10/2020 10:40 14.8 32 452.4 498 0.0 1.6 5.6 299
18/10/2020 10:50 14.6 32 414.7 396 0.0 1.6 5.9 313
18/10/2020 11:00 14.3 32 438.7 544 0.0 2.0 7.3 316
18/10/2020 11:10 14.7 32 573.8 600 0.0 1.4 5.0 308
18/10/2020 11:20 15.3 29 616.1 600 0.0 1.4 4.9 308
18/10/2020 11:30 15.7 25 626.6 600 0.0 1.5 5.4 321
18/10/2020 11:40 15.8 22 629.8 600 0.0 1.3 4.6 335
18/10/2020 11:50 16.2 18 632.4 600 0.0 1.6 5.7 301
18/10/2020 12:00 16.1 18 634.4 600 0.0 1.8 6.4 343
18/10/2020 12:10 16.2 20 632.5 600 0.0 1.9 6.7 322
18/10/2020 12:20 16.4 23 630.6 600 0.0 1.6 5.7 313
18/10/2020 12:30 16.8 26 624.9 600 0.0 1.8 6.4 250
18/10/2020 12:40 16.9 28 618.9 600 0.0 1.2 4.2 244
18/10/2020 12:50 16.9 31 609.5 600 0.0 1.2 4.4 330
18/10/2020 13:00 16.8 33 599.0 600 0.0 1.5 5.5 343
18/10/2020 13:10 16.8 33 578.9 600 0.0 1.7 6.1 318
18/10/2020 13:20 17.1 32 555.7 600 0.0 1.6 5.9 259
18/10/2020 13:30 17.3 33 555.3 600 0.0 1.8 6.6 282
18/10/2020 13:40 17.0 36 532.2 600 0.0 1.9 6.9 294
18/10/2020 13:50 17.2 38 514.3 600 0.0 1.8 6.5 214
18/10/2020 14:00 16.7 37 492.5 600 0.0 1.6 5.8 213
18/10/2020 14:10 16.9 37 441.9 600 0.0 1.7 6.3 222
18/10/2020 14:20 17.3 37 439.7 600 0.0 2.0 7.3 216
18/10/2020 14:30 17.0 39 430.5 600 0.0 2.6 9.3 207
18/10/2020 14:40 16.8 38 380.8 600 0.0 2.9 10.4 227
18/10/2020 14:50 16.5 38 337.8 600 0.0 2.3 8.4 230
18/10/2020 15:00 16.2 39 226.6 488 0.0 2.1 7.6 213
18/10/2020 15:10 15.8 40 269.4 576 0.0 1.8 6.3 215
18/10/2020 15:20 16.2 40 279.1 600 0.0 1.7 6.0 216
18/10/2020 15:30 16.7 39 254.4 600 0.0 1.4 5.1 234
18/10/2020 15:40 16.5 40 210.7 600 0.0 1.3 4.8 239
18/10/2020 15:50 16.2 42 135.7 386 0.0 1.7 6.0 218
18/10/2020 16:00 15.1 45 158.6 464 0.0 1.9 6.7 211
18/10/2020 16:10 14.5 47 76.4 146 0.0 1.8 6.5 209
18/10/2020 16:20 13.7 49 84.3 352 0.0 1.1 4.0 219
18/10/2020 16:30 14.1 49 103.0 578 0.0 0.3 1.1 241
18/10/2020 16:40 13.4 54 81.4 600 0.0 0.4 1.5 216
18/10/2020 16:50 11.9 62 20.9 68 0.0 0.3 1.0 244
18/10/2020 17:00 10.2 64 0.0 0 0.0 0.3 1.0 232
18/10/2020 17:10 9.1 69 0.0 0 0.0 0.4 1.3 64
18/10/2020 17:20 7.3 77 0.0 0 0.0 0.5 1.9 62
18/10/2020 17:30 6.3 78 0.0 0 0.0 0.7 2.3 69
18/10/2020 17:40 5.1 81 0.0 0 0.0 0.8 2.7 81
18/10/2020 17:50 4.4 85 0.0 0 0.0 1.1 3.8 70
18/10/2020 18:00 3.5 86 0.0 0 0.0 0.8 2.8 83
18/10/2020 18:10 3.2 88 0.0 0 0.0 1.3 4.7 78
18/10/2020 18:20 2.9 89 0.0 0 0.0 0.7 2.6 78
18/10/2020 18:30 2.5 90 0.0 0 0.0 0.9 3.3 71
18/10/2020 18:40 2.2 90 0.0 0 0.0 0.6 2.2 74
18/10/2020 18:50 1.8 90 0.0 0 0.0 1.1 3.9 75
18/10/2020 19:00 1.3 91 0.0 0 0.0 0.9 3.2 78
18/10/2020 19:10 1.3 92 0.0 0 0.0 0.8 3.0 82
18/10/2020 19:20 1.5 93 0.0 0 0.0 1.0 3.7 72
18/10/2020 19:30 1.2 93 0.0 0 0.0 0.6 2.3 77
18/10/2020 19:40 0.8 93 0.0 0 0.0 0.5 1.9 83
18/10/2020 19:50 0.7 93 0.0 0 0.0 0.7 2.4 71
18/10/2020 20:00 0.5 93 0.0 0 0.0 0.7 2.3 75
18/10/2020 20:10 0.2 94 0.0 0 0.0 0.5 1.8 82
18/10/2020 20:20 0.2 94 0.0 0 0.0 0.6 2.1 82
18/10/2020 20:30 -0.1 94 0.0 0 0.0 0.4 1.3 84
18/10/2020 20:40 -0.3 94 0.0 0 0.0 0.4 1.4 78
18/10/2020 20:50 -0.2 95 0.0 0 0.0 0.5 1.9 76
18/10/2020 21:00 -0.4 95 0.0 0 0.0 0.8 2.7 77
18/10/2020 21:10 -0.7 95 0.0 0 0.0 0.0 0.1 84
18/10/2020 21:20 -0.9 95 0.0 0 0.0 0.0 0.0 84
18/10/2020 21:30 -1.2 94 0.0 0 0.0 0.1 0.3 65
18/10/2020 21:40 -1.4 95 0.0 0 0.0 0.1 0.4 47
18/10/2020 21:50 -1.4 95 0.0 0 0.0 0.3 1.2 62
18/10/2020 22:00 -1.4 95 0.0 0 0.0 0.2 0.6 77
18/10/2020 22:10 -1.4 95 0.0 0 0.0 0.1 0.4 62
18/10/2020 22:20 -1.6 95 0.0 0 0.0 0.3 1.0 59
18/10/2020 22:30 -1.7 95 0.0 0 0.0 0.2 0.5 350
18/10/2020 22:40 -1.8 95 0.0 0 0.0 0.2 0.8 151
18/10/2020 22:50 -1.5 96 0.0 0 0.0 0.1 0.4 204
18/10/2020 23:00 -1.5 96 0.0 0 0.0 0.3 1.0 100
18/10/2020 23:10 -1.4 96 0.0 0 0.0 0.2 0.8 87
18/10/2020 23:20 -0.9 96 0.0 0 0.0 0.0 0.1 81
18/10/2020 23:30 -1.0 96 0.0 0 0.0 0.1 0.3 34
18/10/2020 23:40 -1.0 96 0.0 0 0.0 0.3 1.2 341
18/10/2020 23:50 -1.1 96 0.0 0 0.0 0.4 1.4 315
Anterior Página 1 de 1 Siguiente

NOTA: Tipo de datos según el color:
   - Valores diarios o 10 minutos correctos
   - Valores diarios calculados a partir de un número de datos 10 minutos menor que 144 y mayor que 120, o de un número de datos semihorarios menor que 48 y mayor que 40 (caso de las estaciones de INTIA Y Ministerio)
   - Valores diez minutos estimados


Contacto        Enlaces        Aviso legal